Time;durP1;ratioP1;P1;durP2;ratioP2;P2;SDS_P1;SDS_P2;PMS_P1;PMS_P2;Temp;Humidity;BMP_temperature;BMP_pressure;BME280_temperature;BME280_humidity;BME280_pressure;Samples;Min_cycle;Max_cycle;Signal;HPM_P1;HPM_P2
2021/09/16 00:00:09;;;;;;;;;;;;;;;;;;10372837;28;19929;-73
2021/09/16 00:05:15;;;;;;;;;;;;;;;;;;10379220;28;20443;-73
2021/09/16 00:10:17;;;;;;;;;;;;;;;;;;10379672;28;20340;-76
2021/09/16 00:15:20;;;;;;;;;;;;;;;;;;10379279;28;19929;-74
2021/09/16 00:20:23;;;;;;;;;;;;;;;;;;10379738;28;20358;-76
2021/09/16 00:25:26;;;;;;;;;;;;;;;;;;10378965;28;19929;-76
2021/09/16 00:30:29;;;;;;;;;;;;;;;;;;10379544;28;20024;-76
2021/09/16 00:35:32;;;;;;;;;;;;;;;;;;10377363;28;19925;-73
2021/09/16 00:40:36;;;;;;;;;;;;;;;;;;10378411;28;19925;-74
2021/09/16 00:45:38;;;;;;;;;;;;;;;;;;10376102;28;19926;-73
2021/09/16 00:50:40;;;;;;;;;;;;;;;;;;10377460;28;19925;-76
2021/09/16 00:55:43;;;;;;;;;;;;;;;;;;10374894;28;20328;-74
2021/09/16 01:00:45;;;;;;;;;;;;;;;;;;10376683;28;19930;-73
2021/09/16 01:05:50;;;;;;;;;;;;;;;;;;10376587;28;19961;-74
2021/09/16 01:10:52;;;;;;;;;;;;;;;;;;10376649;28;19926;-76
2021/09/16 01:15:54;;;;;;;;;;;;;;;;;;10376162;28;19925;-75
2021/09/16 01:20:57;;;;;;;;;;;;;;;;;;10377145;28;19936;-76
2021/09/16 01:26:00;;;;;;;;;;;;;;;;;;10376317;28;20005;-73
2021/09/16 01:31:02;;;;;;;;;;;;;;;;;;10377152;28;19936;-74
2021/09/16 01:36:05;;;;;;;;;;;;;;;;;;10376267;28;19952;-74
2021/09/16 01:41:07;;;;;;;;;;;;;;;;;;10376368;28;20274;-76
2021/09/16 01:46:10;;;;;;;;;;;;;;;;;;10375753;28;19929;-76
2021/09/16 01:51:13;;;;;;;;;;;;;;;;;;10375349;28;19926;-76
2021/09/16 01:56:15;;;;;;;;;;;;;;;;;;10375613;28;19925;-72
2021/09/16 02:01:17;;;;;;;;;;;;;;;;;;10376447;28;19930;-76
2021/09/16 02:06:20;;;;;;;;;;;;;;;;;;10375320;28;19936;-76
2021/09/16 02:11:22;;;;;;;;;;;;;;;;;;10374858;28;19933;-76
2021/09/16 02:16:25;;;;;;;;;;;;;;;;;;10375224;28;19925;-73
2021/09/16 02:21:27;;;;;;;;;;;;;;;;;;10373874;28;19925;-76
2021/09/16 02:26:30;;;;;;;;;;;;;;;;;;10372681;28;19937;-76
2021/09/16 02:31:32;;;;;;;;;;;;;;;;;;10374997;28;19929;-73
2021/09/16 02:36:36;;;;;;;;;;;;;;;;;;10374439;28;19933;-73
2021/09/16 02:41:38;;;;;;;;;;;;;;;;;;10373745;28;20277;-76
2021/09/16 02:46:40;;;;;;;;;;;;;;;;;;10373729;28;20377;-73
2021/09/16 02:51:43;;;;;;;;;;;;;;;;;;10374232;28;20415;-76
2021/09/16 02:56:45;;;;;;;;;;;;;;;;;;10374008;28;19925;-72
2021/09/16 03:01:48;;;;;;;;;;;;;;;;;;10372359;28;19926;-73
2021/09/16 03:06:50;;;;;;;;;;;;;;;;;;10373335;28;19968;-74
2021/09/16 03:11:56;;;;;;;;;;;;;;;;;;10373021;28;19997;-75
2021/09/16 03:16:59;;;;;;;;;;;;;;;;;;10373289;28;19948;-75
2021/09/16 03:22:09;;;;;;;;;;;;;;;;;;10373291;28;19932;-73
2021/09/16 03:27:11;;;;;;;;;;;;;;;;;;10371319;28;19995;-75
2021/09/16 03:32:14;;;;;;;;;;;;;;;;;;10371041;28;19925;-73
2021/09/16 03:37:16;;;;;;;;;;;;;;;;;;10373894;28;19965;-73
2021/09/16 03:42:20;;;;;;;;;;;;;;;;;;10380178;28;19937;-72
2021/09/16 03:47:22;;;;;;;;;;;;;;;;;;10380322;28;19925;-74
2021/09/16 03:52:25;;;;;;;;;;;;;;;;;;10380460;28;20507;-75
2021/09/16 03:57:27;;;;;;;;;;;;;;;;;;10381354;28;19926;-73
2021/09/16 04:02:43;;;;;;;;;;;;;;;;;;10379272;28;20369;-76
2021/09/16 04:07:46;;;;;;;;;;;;;;;;;;10379412;28;20289;-76
2021/09/16 04:12:49;;;;;;;;;;;;;;;;;;10379424;28;19932;-74
2021/09/16 04:17:51;;;;;;;;;;;;;;;;;;10380174;28;19925;-76
2021/09/16 04:22:54;;;;;;;;;;;;;;;;;;10378629;28;19956;-76
2021/09/16 04:27:56;;;;;;;;;;;;;;;;;;10378570;28;19925;-73
2021/09/16 04:33:06;;;;;;;;;;;;;;;;;;10394246;28;19925;-72
2021/09/16 04:38:08;;;;;;;;;;;;;;;;;;10379401;28;20316;-76
2021/09/16 04:43:11;;;;;;;;;;;;;;;;;;10377805;28;19926;-73
2021/09/16 04:48:14;;;;;;;;;;;;;;;;;;10376332;28;19937;-73
2021/09/16 04:53:17;;;;;;;;;;;;;;;;;;10377137;28;20274;-72
2021/09/16 04:58:20;;;;;;;;;;;;;;;;;;10378668;28;19976;-73
2021/09/16 05:03:22;;;;;;;;;;;;;;;;;;10377106;28;19926;-76
2021/09/16 05:08:32;;;;;;;;;;;;;;;;;;10376198;28;20012;-73
2021/09/16 05:13:34;;;;;;;;;;;;;;;;;;10375854;28;19991;-74
2021/09/16 05:18:38;;;;;;;;;;;;;;;;;;10376703;28;20067;-77
2021/09/16 05:23:41;;;;;;;;;;;;;;;;;;10376436;28;19927;-75
2021/09/16 05:28:45;;;;;;;;;;;;;;;;;;10374810;28;19952;-74
2021/09/16 05:33:48;;;;;;;;;;;;;;;;;;10375956;28;19932;-76
2021/09/16 05:38:51;;;;;;;;;;;;;;;;;;10375312;28;19933;-76
2021/09/16 05:43:55;;;;;;;;;;;;;;;;;;10375414;28;19926;-77
2021/09/16 05:49:00;;;;;;;;;;;;;;;;;;10375166;28;20317;-75
2021/09/16 05:54:05;;;;;;;;;;;;;;;;;;10375100;28;20271;-77
2021/09/16 05:59:08;;;;;;;;;;;;;;;;;;10374034;28;20304;-75
2021/09/16 06:04:11;;;;;;;;;;;;;;;;;;10374797;28;19944;-75
2021/09/16 06:09:14;;;;;;;;;;;;;;;;;;10369333;28;19925;-76
2021/09/16 06:14:17;;;;;;;;;;;;;;;;;;10347334;28;19933;-78
2021/09/16 06:19:20;;;;;;;;;;;;;;;;;;10332479;28;19930;-78
2021/09/16 06:24:23;;;;;;;;;;;;;;;;;;10335955;28;19925;-86
2021/09/16 06:29:26;;;;;;;;;;;;;;;;;;10373561;28;19996;-78
2021/09/16 06:34:32;;;;;;;;;;;;;;;;;;10372222;28;20036;-80
2021/09/16 06:39:35;;;;;;;;;;;;;;;;;;10368941;28;20300;-86
2021/09/16 06:44:37;;;;;;;;;;;;;;;;;;10372946;28;19929;-86
2021/09/16 06:49:46;;;;;;;;;;;;;;;;;;10373730;28;20336;-81
2021/09/16 06:54:57;;;;;;;;;;;;;;;;;;10373959;28;20373;-77
2021/09/16 07:00:01;;;;;;;;;;;;;;;;;;10373436;28;19929;-76
2021/09/16 07:05:03;;;;;;;;;;;;;;;;;;10373234;28;19964;-64
2021/09/16 07:10:06;;;;;;;;;;;;;;;;;;10374144;28;19932;-67
2021/09/16 07:15:08;;;;;;;;;;;;;;;;;;10381006;28;19926;-65
2021/09/16 07:20:13;;;;;;;;;;;;;;;;;;10381142;28;19925;-65
2021/09/16 07:25:16;;;;;;;;;;;;;;;;;;10380647;28;19926;-65
2021/09/16 07:30:19;;;;;;;;;;;;;;;;;;10380611;28;19934;-66
2021/09/16 07:35:22;;;;;;;;;;;;;;;;;;10381882;28;19929;-71
2021/09/16 07:40:24;;;;;;;;;;;;;;;;;;10379753;28;19925;-64
2021/09/16 07:45:27;;;;;;;;;;;;;;;;;;10379940;28;19933;-69
2021/09/16 07:50:31;;;;;;;;;;;;;;;;;;10380482;28;20365;-64
2021/09/16 07:55:33;;;;;;;;;;;;;;;;;;10380928;28;19925;-64
2021/09/16 08:00:36;;;;;;;;;;;;;;;;;;10357610;28;19942;-64
2021/09/16 08:05:40;;;;;;;;;;;;;;;;;;10359958;28;19964;-64
2021/09/16 08:10:42;;;;;;;;;;;;;;;;;;10377166;28;19947;-63
2021/09/16 08:15:45;;;;;;;;;;;;;;;;;;10377668;28;19929;-70
2021/09/16 08:20:53;;;;;;;;;;;;;;;;;;10378196;28;19929;-63
2021/09/16 08:25:56;;;;;;;;;;;;;;;;;;10378097;28;19925;-69
2021/09/16 08:30:58;;;;;;;;;;;;;;;;;;10378370;28;19929;-69
2021/09/16 08:36:01;;;;;;;;;;;;;;;;;;10378882;28;19925;-68
2021/09/16 08:41:04;;;;;;;;;;;;;;;;;;10410836;23;19927;-61
2021/09/16 08:46:06;;;;;;;;;;;;;;;;;;10295516;28;19977;-62
2021/09/16 08:51:09;;;;;;;;;;;;;;;;;;10297277;28;20452;-61
2021/09/16 08:56:12;;;;;;;;;;;;;;;;;;10296082;28;19933;-60
2021/09/16 09:01:14;;;;;;;;;;;;;;;;;;10295937;28;19926;-60
2021/09/16 09:06:17;;;;;;;;;;;;;;;;;;10297326;28;19976;-62
2021/09/16 09:11:20;;;;;;;;;;;;;;;;;;10293652;28;19926;-62
2021/09/16 09:16:22;;;;;;;;;;;;;;;;;;10294176;28;19930;-59
2021/09/16 09:21:24;;;;;;;;;;;;;;;;;;10295373;28;19926;-61
2021/09/16 09:26:27;;;;;;;;;;;;;;;;;;10293358;28;19930;-60
2021/09/16 09:31:29;;;;;;;;;;;;;;;;;;10295774;28;19933;-64
2021/09/16 09:36:32;;;;;;;;;;;;;;;;;;10296009;28;19977;-61
2021/09/16 09:41:34;;;;;;;;;;;;;;;;;;10295262;28;19941;-60
2021/09/16 09:46:37;;;;;;;;;;;;;;;;;;10292339;28;19930;-64
2021/09/16 09:51:39;;;;;;;;;;;;;;;;;;10293644;28;19934;-64
2021/09/16 09:56:41;;;;;;;;;;;;;;;;;;10290834;28;19926;-59
2021/09/16 10:01:44;;;;;;;;;;;;;;;;;;10275490;28;19926;-61
2021/09/16 10:06:47;;;;;;;;;;;;;;;;;;10285627;28;19930;-63
2021/09/16 10:11:49;;;;;;;;;;;;;;;;;;10285520;28;20329;-63
2021/09/16 10:16:52;;;;;;;;;;;;;;;;;;10287243;28;19934;-62
2021/09/16 10:21:54;;;;;;;;;;;;;;;;;;10283287;28;19926;-64
2021/09/16 10:26:56;;;;;;;;;;;;;;;;;;10277873;28;19965;-65
2021/09/16 10:31:59;;;;;;;;;;;;;;;;;;10284818;28;19937;-63
2021/09/16 10:37:01;;;;;;;;;;;;;;;;;;10285189;28;20416;-63
2021/09/16 10:42:04;;;;;;;;;;;;;;;;;;10285137;28;20350;-64
2021/09/16 10:47:06;;;;;;;;;;;;;;;;;;10286638;28;19937;-63
2021/09/16 10:52:09;;;;;;;;;;;;;;;;;;10286114;28;20010;-63
2021/09/16 10:57:11;;;;;;;;;;;;;;;;;;10286147;28;20385;-65
2021/09/16 11:02:15;;;;;;;;;;;;;;;;;;10287301;28;19926;-64
2021/09/16 11:07:18;;;;;;;;;;;;;;;;;;10288580;28;19934;-64
2021/09/16 11:12:20;;;;;;;;;;;;;;;;;;10284590;28;19929;-64
2021/09/16 11:17:23;;;;;;;;;;;;;;;;;;10283797;28;19930;-67
2021/09/16 11:22:25;;;;;;;;;;;;;;;;;;10285622;28;19969;-67
2021/09/16 11:27:27;;;;;;;;;;;;;;;;;;10281543;28;19949;-67
2021/09/16 11:32:30;;;;;;;;;;;;;;;;;;10289146;28;20259;-62
2021/09/16 11:37:32;;;;;;;;;;;;;;;;;;10291109;28;20298;-62
2021/09/16 11:42:35;;;;;;;;;;;;;;;;;;10291393;28;20400;-67
2021/09/16 11:47:38;;;;;;;;;;;;;;;;;;10291039;28;20366;-63
2021/09/16 11:52:40;;;;;;;;;;;;;;;;;;10291534;28;20331;-62
2021/09/16 11:57:43;;;;;;;;;;;;;;;;;;10286766;28;20006;-68
2021/09/16 12:02:45;;;;;;;;;;;;;;;;;;10292531;28;19937;-67
2021/09/16 12:07:48;;;;;;;;;;;;;;;;;;10292674;28;19952;-67
2021/09/16 12:12:50;;;;;;;;;;;;;;;;;;10291522;28;19973;-67
2021/09/16 12:17:53;;;;;;;;;;;;;;;;;;10292965;28;20025;-67
2021/09/16 12:22:56;;;;;;;;;;;;;;;;;;10292433;28;20423;-67
2021/09/16 12:27:58;;;;;;;;;;;;;;;;;;10294621;28;19952;-67
2021/09/16 12:33:01;;;;;;;;;;;;;;;;;;10290845;28;20014;-63
2021/09/16 12:38:03;;;;;;;;;;;;;;;;;;10292569;28;19930;-63
2021/09/16 12:43:06;;;;;;;;;;;;;;;;;;10291447;28;19938;-65
2021/09/16 12:48:08;;;;;;;;;;;;;;;;;;10291967;28;19930;-66
2021/09/16 12:53:17;;;;;;;;;;;;;;;;;;10291009;28;19934;-66
2021/09/16 12:58:20;;;;;;;;;;;;;;;;;;10288292;28;19938;-66
2021/09/16 13:03:25;;;;;;;;;;;;;;;;;;10290695;28;19926;-67
2021/09/16 13:08:28;;;;;;;;;;;;;;;;;;10290269;28;19932;-66
2021/09/16 13:13:33;;;;;;;;;;;;;;;;;;10289763;28;19977;-65
2021/09/16 13:18:36;;;;;;;;;;;;;;;;;;10288981;28;19926;-63
2021/09/16 13:23:38;;;;;;;;;;;;;;;;;;10290990;28;19930;-66
2021/09/16 13:28:43;;;;;;;;;;;;;;;;;;10290161;28;20378;-65
2021/09/16 13:33:45;;;;;;;;;;;;;;;;;;10289332;28;20409;-64
2021/09/16 13:38:50;;;;;;;;;;;;;;;;;;10290264;28;19936;-62
2021/09/16 13:43:53;;;;;;;;;;;;;;;;;;10287326;28;19930;-65
2021/09/16 13:48:55;;;;;;;;;;;;;;;;;;10290199;28;19937;-64
2021/09/16 13:53:58;;;;;;;;;;;;;;;;;;10288565;28;19961;-68
2021/09/16 13:59:00;;;;;;;;;;;;;;;;;;10285420;28;20010;-65
2021/09/16 14:04:03;;;;;;;;;;;;;;;;;;10289130;28;20029;-69
2021/09/16 14:09:06;;;;;;;;;;;;;;;;;;10288599;28;19930;-69
2021/09/16 14:14:09;;;;;;;;;;;;;;;;;;10288666;28;19930;-68
2021/09/16 14:19:12;;;;;;;;;;;;;;;;;;10287546;28;19930;-71
2021/09/16 14:24:14;;;;;;;;;;;;;;;;;;10280855;28;20405;-68
2021/09/16 14:29:17;;;;;;;;;;;;;;;;;;10288195;28;19930;-69
2021/09/16 14:34:19;;;;;;;;;;;;;;;;;;10288808;28;19942;-66
2021/09/16 14:39:21;;;;;;;;;;;;;;;;;;10287933;28;20381;-65
2021/09/16 14:44:26;;;;;;;;;;;;;;;;;;10288870;28;20071;-72
2021/09/16 14:49:29;;;;;;;;;;;;;;;;;;10289525;28;19930;-72
2021/09/16 14:54:32;;;;;;;;;;;;;;;;;;10286501;28;19985;-69
2021/09/16 14:59:34;;;;;;;;;;;;;;;;;;10289685;28;19930;-70
2021/09/16 15:04:37;;;;;;;;;;;;;;;;;;10287437;28;19936;-69
2021/09/16 15:09:39;;;;;;;;;;;;;;;;;;10294968;28;20337;-67
2021/09/16 15:14:42;;;;;;;;;;;;;;;;;;10291760;28;20285;-73
2021/09/16 15:19:44;;;;;;;;;;;;;;;;;;10292718;28;19977;-73
2021/09/16 15:24:48;;;;;;;;;;;;;;;;;;10292340;28;20028;-67
2021/09/16 15:29:50;;;;;;;;;;;;;;;;;;10288304;28;20568;-69
2021/09/16 15:34:53;;;;;;;;;;;;;;;;;;10295323;28;20397;-70
2021/09/16 15:39:55;;;;;;;;;;;;;;;;;;10296336;28;19930;-68
2021/09/16 15:44:58;;;;;;;;;;;;;;;;;;10295127;28;19936;-66
2021/09/16 15:50:00;;;;;;;;;;;;;;;;;;10294515;28;19926;-70
2021/09/16 15:55:05;;;;;;;;;;;;;;;;;;10295280;28;20429;-72
2021/09/16 16:00:08;;;;;;;;;;;;;;;;;;10294047;28;19937;-73
2021/09/16 16:05:14;;;;;;;;;;;;;;;;;;10298805;28;20386;-70
2021/09/16 16:10:16;;;;;;;;;;;;;;;;;;10299552;28;20281;-69
2021/09/16 16:15:19;;;;;;;;;;;;;;;;;;10299015;28;20309;-69
2021/09/16 16:20:21;;;;;;;;;;;;;;;;;;10297953;28;20028;-73
2021/09/16 16:25:24;;;;;;;;;;;;;;;;;;10298115;28;19932;-70
2021/09/16 16:30:26;;;;;;;;;;;;;;;;;;10249134;29;19927;-73
2021/09/16 16:35:30;;;;;;;;;;;;;;;;;;10253698;28;19993;-73
2021/09/16 16:40:32;;;;;;;;;;;;;;;;;;10253117;28;19937;-70
2021/09/16 16:45:35;;;;;;;;;;;;;;;;;;10252522;28;20025;-74
2021/09/16 16:50:37;;;;;;;;;;;;;;;;;;10253336;28;19926;-68
2021/09/16 16:55:40;;;;;;;;;;;;;;;;;;10253172;28;20383;-69
2021/09/16 17:00:42;;;;;;;;;;;;;;;;;;10253177;28;19934;-73
2021/09/16 17:05:44;;;;;;;;;;;;;;;;;;10252239;28;20754;-73
2021/09/16 17:10:47;;;;;;;;;;;;;;;;;;10252444;28;20351;-69
2021/09/16 17:15:50;;;;;;;;;;;;;;;;;;10252381;28;19933;-72
2021/09/16 17:20:53;;;;;;;;;;;;;;;;;;10252067;28;20390;-68
2021/09/16 17:25:57;;;;;;;;;;;;;;;;;;10248013;28;19954;-68
2021/09/16 17:31:00;;;;;;;;;;;;;;;;;;10253180;28;20405;-69
2021/09/16 17:36:04;;;;;;;;;;;;;;;;;;10290482;28;20305;-68
2021/09/16 17:41:06;;;;;;;;;;;;;;;;;;10293430;28;19934;-72
2021/09/16 17:46:08;;;;;;;;;;;;;;;;;;10294522;28;20029;-69
2021/09/16 17:51:11;;;;;;;;;;;;;;;;;;10293677;28;20378;-67
2021/09/16 17:56:14;;;;;;;;;;;;;;;;;;10290484;28;20021;-68
2021/09/16 18:01:19;;;;;;;;;;;;;;;;;;10294148;28;20064;-65
2021/09/16 18:06:29;;;;;;;;;;;;;;;;;;10293105;28;19981;-63
2021/09/16 18:11:32;;;;;;;;;;;;;;;;;;10293560;28;19930;-67
2021/09/16 18:16:35;;;;;;;;;;;;;;;;;;10292824;28;19954;-67
2021/09/16 18:21:42;;;;;;;;;;;;;;;;;;10292990;28;19982;-67
2021/09/16 18:26:44;;;;;;;;;;;;;;;;;;10292381;28;19933;-66
2021/09/16 18:31:47;;;;;;;;;;;;;;;;;;10290636;28;19932;-68
2021/09/16 18:36:49;;;;;;;;;;;;;;;;;;10289385;28;19941;-66
2021/09/16 18:41:53;;;;;;;;;;;;;;;;;;10288718;28;19933;-63
2021/09/16 18:46:55;;;;;;;;;;;;;;;;;;10294817;28;19933;-65
2021/09/16 18:51:59;;;;;;;;;;;;;;;;;;10293569;28;20456;-65
2021/09/16 18:57:02;;;;;;;;;;;;;;;;;;10293299;28;20422;-69
2021/09/16 19:02:05;;;;;;;;;;;;;;;;;;10292701;28;20464;-69
2021/09/16 19:07:08;;;;;;;;;;;;;;;;;;10294049;28;19926;-69
2021/09/16 19:12:16;;;;;;;;;;;;;;;;;;10301321;28;19980;-68
2021/09/16 19:17:33;;;;;;;;;;;;;;;;;;10294881;28;20417;-68
2021/09/16 19:22:39;;;;;;;;;;;;;;;;;;10296090;28;20071;-65
2021/09/16 19:27:42;;;;;;;;;;;;;;;;;;10294530;28;19933;-69
2021/09/16 19:32:47;;;;;;;;;;;;;;;;;;10297247;28;19930;-66
2021/09/16 19:37:55;;;;;;;;;;;;;;;;;;10302251;28;19930;-68
2021/09/16 19:43:05;;;;;;;;;;;;;;;;;;10303254;28;19929;-69
2021/09/16 19:48:09;;;;;;;;;;;;;;;;;;10295618;28;19934;-68
2021/09/16 19:53:13;;;;;;;;;;;;;;;;;;10294904;28;19933;-68
2021/09/16 19:58:15;;;;;;;;;;;;;;;;;;10294422;28;20045;-67
2021/09/16 20:03:21;;;;;;;;;;;;;;;;;;10294441;28;20016;-75
2021/09/16 20:08:28;;;;;;;;;;;;;;;;;;10293467;28;19930;-75
2021/09/16 20:13:32;;;;;;;;;;;;;;;;;;10293569;28;19926;-72
2021/09/16 20:18:37;;;;;;;;;;;;;;;;;;10288296;28;20370;-71
2021/09/16 20:23:42;;;;;;;;;;;;;;;;;;10291530;28;19937;-74
2021/09/16 20:28:45;;;;;;;;;;;;;;;;;;10290442;28;19976;-71
2021/09/16 20:33:50;;;;;;;;;;;;;;;;;;10291968;28;19934;-76
2021/09/16 20:38:53;;;;;;;;;;;;;;;;;;10304183;23;20408;-70
2021/09/16 20:44:03;;;;;;;;;;;;;;;;;;10322312;28;19936;-75
2021/09/16 20:49:09;;;;;;;;;;;;;;;;;;10332563;28;19933;-74
2021/09/16 20:54:15;;;;;;;;;;;;;;;;;;10314455;28;19984;-74
2021/09/16 20:59:20;;;;;;;;;;;;;;;;;;10331601;28;19936;-72
2021/09/16 21:04:25;;;;;;;;;;;;;;;;;;10313974;28;19940;-70
2021/09/16 21:09:27;;;;;;;;;;;;;;;;;;10331501;28;19934;-70
2021/09/16 21:14:30;;;;;;;;;;;;;;;;;;10331544;28;20020;-72
2021/09/16 21:19:33;;;;;;;;;;;;;;;;;;10342689;28;19943;-70
2021/09/16 21:24:37;;;;;;;;;;;;;;;;;;10328820;28;19926;-69
2021/09/16 21:29:44;;;;;;;;;;;;;;;;;;10312612;28;19929;-70
2021/09/16 21:34:47;;;;;;;;;;;;;;;;;;10312578;28;20294;-73
2021/09/16 21:39:51;;;;;;;;;;;;;;;;;;10330135;28;20297;-72
2021/09/16 21:44:56;;;;;;;;;;;;;;;;;;10312118;28;20306;-72
2021/09/16 21:50:02;;;;;;;;;;;;;;;;;;10314200;28;20384;-74
2021/09/16 21:55:04;;;;;;;;;;;;;;;;;;10332932;28;20005;-71
2021/09/16 22:00:08;;;;;;;;;;;;;;;;;;10333606;28;20396;-74
2021/09/16 22:05:13;;;;;;;;;;;;;;;;;;10335551;28;19960;-72
2021/09/16 22:10:18;;;;;;;;;;;;;;;;;;10335247;28;20381;-71
2021/09/16 22:15:20;;;;;;;;;;;;;;;;;;10334149;28;19961;-74
2021/09/16 22:20:23;;;;;;;;;;;;;;;;;;10333981;28;19934;-73
2021/09/16 22:25:26;;;;;;;;;;;;;;;;;;10349135;28;19933;-72
2021/09/16 22:30:30;;;;;;;;;;;;;;;;;;10349302;28;20296;-74
2021/09/16 22:35:34;;;;;;;;;;;;;;;;;;10333732;28;19972;-71
2021/09/16 22:40:40;;;;;;;;;;;;;;;;;;10332981;28;19926;-72
2021/09/16 22:45:43;;;;;;;;;;;;;;;;;;10333106;28;19940;-72
2021/09/16 22:50:45;;;;;;;;;;;;;;;;;;10333297;28;19937;-72
2021/09/16 22:55:48;;;;;;;;;;;;;;;;;;10333483;28;20009;-72
2021/09/16 23:00:52;;;;;;;;;;;;;;;;;;10333396;28;19933;-72
2021/09/16 23:05:55;;;;;;;;;;;;;;;;;;10348597;28;19930;-73
2021/09/16 23:10:59;;;;;;;;;;;;;;;;;;10348619;28;19992;-71
2021/09/16 23:16:09;;;;;;;;;;;;;;;;;;10332720;28;19980;-74
2021/09/16 23:21:12;;;;;;;;;;;;;;;;;;10333055;28;19926;-74
2021/09/16 23:26:16;;;;;;;;;;;;;;;;;;10332859;28;20380;-71
2021/09/16 23:31:19;;;;;;;;;;;;;;;;;;10333038;28;20411;-74
2021/09/16 23:36:24;;;;;;;;;;;;;;;;;;10332732;28;19925;-71
2021/09/16 23:41:28;;;;;;;;;;;;;;;;;;10332166;28;19926;-73
2021/09/16 23:46:32;;;;;;;;;;;;;;;;;;10332835;28;19967;-72
2021/09/16 23:51:35;;;;;;;;;;;;;;;;;;10326370;28;19926;-71
2021/09/16 23:56:40;;;;;;;;;;;;;;;;;;10339549;28;19926;-73
